createdAt,value
2022-10-16T00:01:13.085Z,16.78
2022-10-16T00:03:40.856Z,16.79
2022-10-16T00:06:08.263Z,16.82
2022-10-16T00:08:35.436Z,16.85
2022-10-16T00:11:08.233Z,16.85
2022-10-16T00:13:36.511Z,16.87
2022-10-16T00:16:04.425Z,16.84
2022-10-16T00:18:31.963Z,16.80
2022-10-16T00:21:13.470Z,16.77
2022-10-16T00:23:40.134Z,16.74
2022-10-16T00:26:10.034Z,16.72
2022-10-16T00:28:36.890Z,16.71
2022-10-16T00:31:08.495Z,16.65
2022-10-16T00:33:36.010Z,16.63
2022-10-16T00:36:04.455Z,16.57
2022-10-16T00:38:31.824Z,16.56
2022-10-16T00:40:58.509Z,16.49
2022-10-16T00:43:39.489Z,16.48
2022-10-16T00:46:13.611Z,16.45
2022-10-16T00:48:40.354Z,16.45
2022-10-16T00:51:07.724Z,16.45
2022-10-16T00:53:34.696Z,16.41
2022-10-16T00:56:01.501Z,16.40
2022-10-16T00:58:28.241Z,16.42
2022-10-16T01:00:54.962Z,16.38
2022-10-16T01:03:31.771Z,16.32
2022-10-16T01:06:16.089Z,16.28
2022-10-16T01:09:07.444Z,16.28
2022-10-16T01:11:55.235Z,16.32
2022-10-16T01:14:35.411Z,16.38
2022-10-16T01:17:16.805Z,16.43
2022-10-16T01:20:04.655Z,16.50
2022-10-16T01:22:58.387Z,16.53
2022-10-16T01:25:37.059Z,16.58
2022-10-16T01:28:06.002Z,16.63
2022-10-16T01:30:33.644Z,16.66
2022-10-16T01:33:13.161Z,16.64
2022-10-16T01:35:43.343Z,16.63
2022-10-16T01:38:14.815Z,16.66
2022-10-16T01:40:45.781Z,16.67
2022-10-16T01:43:20.323Z,16.71
2022-10-16T01:45:47.339Z,16.71
2022-10-16T01:48:17.823Z,16.71
2022-10-16T01:50:46.158Z,16.67
2022-10-16T01:53:15.023Z,16.68
2022-10-16T01:55:46.194Z,16.64
2022-10-16T01:58:15.052Z,16.65
2022-10-16T02:00:44.638Z,16.61
2022-10-16T02:03:13.228Z,16.62
2022-10-16T02:05:47.579Z,16.66
2022-10-16T02:08:15.193Z,16.70
2022-10-16T02:10:42.039Z,16.72
2022-10-16T02:13:18.272Z,16.72
2022-10-16T02:15:44.987Z,16.72
2022-10-16T02:18:11.916Z,16.72
2022-10-16T02:20:47.865Z,16.74
2022-10-16T02:23:19.639Z,16.73
2022-10-16T02:25:47.455Z,16.74
2022-10-16T02:28:17.896Z,16.73
2022-10-16T02:30:54.204Z,16.75
2022-10-16T02:33:22.475Z,16.72
2022-10-16T02:35:49.947Z,16.68
2022-10-16T02:38:17.651Z,16.71
2022-10-16T02:40:44.524Z,16.70
2022-10-16T02:43:11.772Z,16.73
2022-10-16T02:45:38.444Z,16.67
2022-10-16T02:48:05.455Z,16.66
2022-10-16T02:50:32.040Z,16.65
2022-10-16T02:52:58.605Z,16.64
2022-10-16T02:55:25.392Z,16.61
2022-10-16T02:57:51.989Z,16.59
2022-10-16T03:00:18.851Z,16.58
2022-10-16T03:02:45.465Z,16.56
2022-10-16T03:05:12.297Z,16.46
2022-10-16T03:07:38.915Z,16.44
2022-10-16T03:10:06.009Z,16.36
2022-10-16T03:12:32.736Z,16.36
2022-10-16T03:14:59.774Z,16.38
2022-10-16T03:17:26.731Z,16.35
2022-10-16T03:19:53.615Z,16.32
2022-10-16T03:22:20.337Z,16.33
2022-10-16T03:24:47.059Z,16.34
2022-10-16T03:27:13.684Z,16.36
2022-10-16T03:29:40.420Z,16.36
2022-10-16T03:32:07.059Z,16.39
2022-10-16T03:34:34.113Z,16.39
2022-10-16T03:37:00.797Z,16.34
2022-10-16T03:39:28.147Z,16.30
2022-10-16T03:41:54.779Z,16.28
2022-10-16T03:44:25.045Z,16.26
2022-10-16T03:46:51.905Z,16.28
2022-10-16T03:49:18.602Z,16.26
2022-10-16T03:51:45.236Z,16.23
2022-10-16T03:54:12.025Z,16.27
2022-10-16T03:56:39.317Z,16.26
2022-10-16T03:59:06.001Z,16.29
2022-10-16T04:01:32.547Z,16.24
2022-10-16T04:03:59.185Z,16.19
2022-10-16T04:06:25.753Z,16.17
2022-10-16T04:08:52.482Z,15.99
2022-10-16T04:11:19.169Z,16.01
2022-10-16T04:13:45.853Z,16.08
2022-10-16T04:16:12.535Z,16.12
2022-10-16T04:18:39.253Z,16.09
2022-10-16T04:21:07.207Z,16.11
2022-10-16T04:23:33.968Z,16.02
2022-10-16T04:26:00.981Z,16.01
2022-10-16T04:28:28.335Z,15.99
2022-10-16T04:30:55.097Z,15.98
2022-10-16T04:33:21.702Z,15.96
2022-10-16T04:35:48.315Z,15.93
2022-10-16T04:38:14.982Z,15.89
2022-10-16T04:40:43.356Z,15.88
2022-10-16T04:43:10.400Z,15.89
2022-10-16T04:45:37.020Z,15.95
2022-10-16T04:48:03.838Z,16.00
2022-10-16T04:50:30.508Z,16.05
2022-10-16T04:53:07.003Z,16.10
2022-10-16T04:55:33.758Z,16.12
2022-10-16T04:58:00.616Z,16.10
2022-10-16T05:00:27.343Z,16.10
2022-10-16T05:02:54.103Z,16.08
2022-10-16T05:05:25.667Z,16.13
2022-10-16T05:07:52.537Z,16.12
2022-10-16T05:10:19.368Z,16.13
2022-10-16T05:12:46.091Z,16.13
2022-10-16T05:15:14.333Z,16.12
2022-10-16T05:17:43.919Z,16.15
2022-10-16T05:20:12.108Z,16.14
2022-10-16T05:22:41.713Z,16.15
2022-10-16T05:25:08.670Z,16.14
2022-10-16T05:27:35.289Z,16.12
2022-10-16T05:30:02.044Z,16.11
2022-10-16T05:32:28.752Z,16.10
2022-10-16T05:34:55.436Z,16.09
2022-10-16T05:37:22.092Z,16.07
2022-10-16T05:39:48.702Z,16.07
2022-10-16T05:42:15.929Z,16.09
2022-10-16T05:44:42.674Z,16.08
2022-10-16T05:47:09.807Z,16.09
2022-10-16T05:49:39.216Z,16.08
2022-10-16T05:52:08.114Z,16.08
2022-10-16T05:54:34.800Z,16.02
2022-10-16T05:57:05.027Z,15.93
2022-10-16T05:59:31.670Z,15.94
2022-10-16T06:01:58.355Z,15.94
2022-10-16T06:04:25.134Z,15.95
2022-10-16T06:06:51.770Z,15.99
2022-10-16T06:09:18.450Z,16.04
2022-10-16T06:11:45.054Z,16.07
2022-10-16T06:14:11.716Z,16.12
2022-10-16T06:16:39.561Z,16.14
2022-10-16T06:19:13.449Z,16.20
2022-10-16T06:21:47.161Z,16.26
2022-10-16T06:24:14.399Z,16.28
2022-10-16T06:26:41.029Z,16.26
2022-10-16T06:29:09.629Z,16.24
2022-10-16T06:31:36.347Z,16.26
2022-10-16T06:34:03.231Z,16.21
2022-10-16T06:36:32.710Z,16.29
2022-10-16T06:39:02.871Z,16.32
2022-10-16T06:41:29.570Z,16.34
2022-10-16T06:43:57.071Z,16.42
2022-10-16T06:46:33.144Z,16.51
2022-10-16T06:48:59.744Z,16.60
2022-10-16T06:51:26.710Z,16.61
2022-10-16T06:54:04.028Z,16.59
2022-10-16T06:56:32.536Z,16.58
2022-10-16T06:58:59.529Z,16.60
2022-10-16T07:01:26.954Z,16.65
2022-10-16T07:04:02.884Z,16.59
2022-10-16T07:06:32.920Z,16.62
2022-10-16T07:08:59.603Z,16.61
2022-10-16T07:11:31.712Z,16.64
2022-10-16T07:13:58.307Z,16.83
2022-10-16T07:16:29.110Z,17.00
2022-10-16T07:19:01.038Z,17.09
2022-10-16T07:21:36.956Z,16.98
2022-10-16T07:24:05.597Z,17.06
2022-10-16T07:26:34.276Z,17.09
2022-10-16T07:29:01.883Z,17.07
2022-10-16T07:31:28.930Z,17.09
2022-10-16T07:33:56.894Z,17.06
2022-10-16T07:36:23.732Z,17.06
2022-10-16T07:38:52.881Z,17.08
2022-10-16T07:41:22.365Z,17.07
2022-10-16T07:43:53.258Z,17.08
2022-10-16T07:46:21.052Z,16.99
2022-10-16T07:48:49.132Z,16.96
2022-10-16T07:51:18.410Z,16.93
2022-10-16T07:53:45.450Z,17.00
2022-10-16T07:56:12.903Z,17.00
2022-10-16T07:58:39.859Z,16.95
2022-10-16T08:01:08.748Z,17.03
2022-10-16T08:03:35.856Z,17.03
2022-10-16T08:06:03.378Z,17.03
2022-10-16T08:08:30.078Z,17.16
2022-10-16T08:10:56.848Z,17.23
2022-10-16T08:13:23.583Z,17.29
2022-10-16T08:15:50.251Z,17.34
2022-10-16T08:18:17.310Z,17.39
2022-10-16T08:20:44.528Z,17.40
2022-10-16T08:23:13.438Z,17.55
2022-10-16T08:25:41.087Z,17.60
2022-10-16T08:28:09.871Z,17.65
2022-10-16T08:30:36.699Z,17.76
2022-10-16T08:33:03.896Z,17.80
2022-10-16T08:35:30.651Z,18.07
2022-10-16T08:37:57.427Z,18.20
2022-10-16T08:40:29.944Z,18.28
2022-10-16T08:43:05.771Z,18.43
2022-10-16T08:46:04.259Z,18.59
2022-10-16T08:48:37.430Z,18.68
2022-10-16T08:51:05.561Z,18.90
2022-10-16T08:53:39.751Z,19.02
2022-10-16T08:56:06.798Z,18.98
2022-10-16T08:58:33.535Z,18.94
2022-10-16T09:01:02.966Z,19.01
2022-10-16T09:04:10.259Z,18.97
2022-10-16T09:06:45.465Z,19.07
2022-10-16T09:09:15.025Z,19.05
2022-10-16T09:11:47.284Z,18.93
2022-10-16T09:14:37.338Z,19.03
2022-10-16T09:17:23.926Z,18.98
2022-10-16T09:20:29.723Z,18.80
2022-10-16T09:23:21.849Z,18.81
2022-10-16T09:25:50.932Z,18.92
2022-10-16T09:28:19.319Z,19.07
2022-10-16T09:30:49.597Z,18.97
2022-10-16T09:33:17.167Z,19.17
2022-10-16T09:35:52.587Z,19.15
2022-10-16T09:38:37.634Z,19.16
2022-10-16T09:41:22.210Z,19.06
2022-10-16T09:43:57.698Z,19.13
2022-10-16T09:46:31.323Z,19.14
2022-10-16T09:49:01.099Z,19.00
2022-10-16T09:51:32.579Z,18.82
2022-10-16T09:54:09.565Z,18.80
2022-10-16T09:56:39.746Z,18.96
2022-10-16T09:59:17.303Z,19.08
2022-10-16T10:01:46.921Z,19.14
2022-10-16T10:04:13.821Z,19.20
2022-10-16T10:06:47.098Z,19.35
2022-10-16T10:09:20.298Z,19.64
2022-10-16T10:11:55.732Z,19.89
2022-10-16T10:14:37.342Z,20.19
2022-10-16T10:17:12.156Z,20.48
2022-10-16T10:19:51.095Z,20.49
2022-10-16T10:22:31.294Z,20.33
2022-10-16T10:25:13.720Z,20.05
2022-10-16T10:28:18.204Z,20.08
2022-10-16T10:31:00.662Z,20.04
2022-10-16T10:33:51.137Z,20.08
2022-10-16T10:36:29.196Z,20.37
2022-10-16T10:39:04.892Z,20.69
2022-10-16T10:41:31.871Z,21.02
2022-10-16T10:44:16.453Z,21.45
2022-10-16T10:46:49.824Z,21.77
2022-10-16T10:49:48.137Z,21.89
2022-10-16T10:52:45.752Z,21.87
2022-10-16T10:55:19.813Z,21.86
2022-10-16T10:58:05.124Z,21.83
2022-10-16T11:00:47.930Z,21.70
2022-10-16T11:03:36.505Z,21.59
2022-10-16T11:06:10.810Z,21.51
2022-10-16T11:09:16.463Z,21.44
2022-10-16T11:11:46.788Z,21.41
2022-10-16T11:14:32.943Z,21.39
2022-10-16T11:17:03.769Z,21.30
2022-10-16T11:19:43.002Z,21.29
2022-10-16T11:22:20.974Z,21.32
2022-10-16T11:24:54.764Z,21.28
2022-10-16T11:27:35.439Z,21.29
2022-10-16T11:30:06.039Z,21.33
2022-10-16T11:33:06.980Z,21.36
2022-10-16T11:35:45.475Z,21.39
2022-10-16T11:38:28.248Z,21.40
2022-10-16T11:40:58.963Z,21.41
2022-10-16T11:43:44.485Z,21.44
2022-10-16T11:46:21.791Z,21.46
2022-10-16T11:49:03.779Z,21.50
2022-10-16T11:51:40.514Z,21.55
2022-10-16T11:54:42.394Z,21.52
2022-10-16T11:57:29.293Z,21.50
2022-10-16T12:00:05.495Z,21.49
2022-10-16T12:02:46.757Z,21.60
2022-10-16T12:05:42.115Z,21.79
2022-10-16T12:08:16.309Z,21.75
2022-10-16T12:10:45.573Z,21.97
2022-10-16T12:13:32.455Z,22.06
2022-10-16T12:16:09.035Z,22.09
2022-10-16T12:18:35.771Z,22.03
2022-10-16T12:21:08.677Z,21.89
2022-10-16T12:23:47.373Z,21.69
2022-10-16T12:26:14.120Z,21.05
2022-10-16T12:28:41.830Z,20.65
2022-10-16T12:31:11.082Z,20.29
2022-10-16T12:33:39.144Z,20.08
2022-10-16T12:36:16.433Z,19.90
2022-10-16T12:38:51.843Z,19.68
2022-10-16T12:41:30.257Z,19.67
2022-10-16T12:43:57.427Z,19.73
2022-10-16T12:46:30.161Z,19.79
2022-10-16T12:49:15.054Z,19.94
2022-10-16T12:51:42.967Z,20.01
2022-10-16T12:54:21.681Z,20.15
2022-10-16T12:57:13.158Z,20.27
2022-10-16T12:59:57.952Z,20.42
2022-10-16T13:02:59.995Z,20.46
2022-10-16T13:05:53.296Z,20.62
2022-10-16T13:08:50.562Z,20.79
2022-10-16T13:11:45.130Z,21.04
2022-10-16T13:14:33.471Z,21.27
2022-10-16T13:17:00.125Z,21.54
2022-10-16T13:19:41.997Z,21.70
2022-10-16T13:22:30.713Z,21.70
2022-10-16T13:25:13.880Z,21.84
2022-10-16T13:27:47.186Z,21.94
2022-10-16T13:30:19.746Z,22.02
2022-10-16T13:32:49.438Z,22.07
2022-10-16T13:35:21.381Z,22.03
2022-10-16T13:37:48.076Z,22.12
2022-10-16T13:40:21.379Z,22.23
2022-10-16T13:42:48.316Z,22.23
2022-10-16T13:45:41.295Z,22.17
2022-10-16T13:48:13.430Z,22.24
2022-10-16T13:50:40.269Z,22.17
2022-10-16T13:53:14.061Z,22.07
2022-10-16T13:55:41.006Z,21.95
2022-10-16T13:58:16.781Z,21.89
2022-10-16T14:01:01.360Z,21.85
2022-10-16T14:03:29.747Z,21.81
2022-10-16T14:05:59.893Z,21.88
2022-10-16T14:08:27.898Z,21.92
2022-10-16T14:10:58.283Z,21.92
2022-10-16T14:13:59.448Z,21.81
2022-10-16T14:16:31.166Z,21.59
2022-10-16T14:19:02.934Z,21.56
2022-10-16T14:21:29.812Z,21.46
2022-10-16T14:23:57.048Z,21.21
2022-10-16T14:26:26.981Z,21.35
2022-10-16T14:29:12.095Z,21.31
2022-10-16T14:31:40.702Z,21.31
2022-10-16T14:34:33.976Z,21.37
2022-10-16T14:37:34.796Z,21.41
2022-10-16T14:40:02.743Z,21.50
2022-10-16T14:42:29.427Z,21.55
2022-10-16T14:44:57.910Z,21.55
2022-10-16T14:47:27.919Z,21.62
2022-10-16T14:50:00.153Z,21.64
2022-10-16T14:52:26.898Z,21.64
2022-10-16T14:54:57.494Z,21.64
2022-10-16T14:57:27.464Z,21.68
2022-10-16T14:59:54.634Z,21.75
2022-10-16T15:02:30.361Z,21.68
2022-10-16T15:04:57.726Z,21.68
2022-10-16T15:07:24.851Z,21.60
2022-10-16T15:09:52.226Z,21.53
2022-10-16T15:12:18.862Z,21.39
2022-10-16T15:14:45.700Z,21.26
2022-10-16T15:17:12.618Z,21.22
2022-10-16T15:19:39.794Z,21.23
2022-10-16T15:22:06.485Z,21.17
2022-10-16T15:24:33.468Z,21.19
2022-10-16T15:27:00.178Z,21.16
2022-10-16T15:29:26.823Z,21.14
2022-10-16T15:31:53.553Z,21.21
2022-10-16T15:34:20.713Z,21.09
2022-10-16T15:36:47.609Z,21.01
2022-10-16T15:39:20.223Z,20.91
2022-10-16T15:41:52.109Z,20.86
2022-10-16T15:44:19.224Z,20.75
2022-10-16T15:46:45.913Z,20.64
2022-10-16T15:49:13.064Z,20.53
2022-10-16T15:51:41.111Z,20.45
2022-10-16T15:54:08.197Z,20.41
2022-10-16T15:56:34.933Z,20.40
2022-10-16T15:59:02.960Z,20.38
2022-10-16T16:01:30.536Z,20.34
2022-10-16T16:03:57.368Z,20.30
2022-10-16T16:06:24.889Z,20.32
2022-10-16T16:08:52.411Z,20.28
2022-10-16T16:11:20.212Z,20.23
2022-10-16T16:13:46.952Z,20.22
2022-10-16T16:16:15.998Z,20.14
2022-10-16T16:18:43.341Z,20.09
2022-10-16T16:21:12.501Z,20.03
2022-10-16T16:23:39.450Z,19.99
2022-10-16T16:26:13.240Z,19.90
2022-10-16T16:28:41.579Z,19.90
2022-10-16T16:31:08.905Z,19.80
2022-10-16T16:33:35.912Z,19.72
2022-10-16T16:36:08.289Z,19.67
2022-10-16T16:38:37.105Z,19.57
2022-10-16T16:41:21.567Z,19.56
2022-10-16T16:43:48.547Z,19.55
2022-10-16T16:46:16.146Z,19.57
2022-10-16T16:48:43.315Z,19.56
2022-10-16T16:51:17.027Z,19.53
2022-10-16T16:53:44.529Z,19.55
2022-10-16T16:56:11.681Z,19.54
2022-10-16T16:58:39.435Z,19.51
2022-10-16T17:01:19.300Z,19.53
2022-10-16T17:03:47.208Z,19.54
2022-10-16T17:06:15.456Z,19.49
2022-10-16T17:08:45.080Z,19.49
2022-10-16T17:11:17.660Z,19.47
2022-10-16T17:13:44.469Z,19.41
2022-10-16T17:16:11.828Z,19.39
2022-10-16T17:18:38.525Z,19.32
2022-10-16T17:21:07.829Z,19.29
2022-10-16T17:23:35.205Z,19.30
2022-10-16T17:26:22.110Z,19.26
2022-10-16T17:28:55.545Z,19.22
2022-10-16T17:31:34.357Z,19.15
2022-10-16T17:34:02.279Z,19.13
2022-10-16T17:36:31.284Z,19.10
2022-10-16T17:39:04.608Z,19.03
2022-10-16T17:41:31.443Z,18.95
2022-10-16T17:43:58.203Z,18.94
2022-10-16T17:46:25.511Z,18.93
2022-10-16T17:48:54.598Z,18.91
2022-10-16T17:51:24.212Z,18.88
2022-10-16T17:53:56.375Z,18.85
2022-10-16T17:56:24.403Z,18.81
2022-10-16T17:58:52.885Z,18.80
2022-10-16T18:01:25.362Z,18.75
2022-10-16T18:03:54.089Z,18.73
2022-10-16T18:06:23.199Z,18.71
2022-10-16T18:08:51.409Z,18.68
2022-10-16T18:11:18.563Z,18.63
2022-10-16T18:13:45.294Z,18.67
2022-10-16T18:16:13.830Z,18.63
2022-10-16T18:18:43.312Z,18.65
2022-10-16T18:21:14.906Z,18.62
2022-10-16T18:23:41.988Z,18.64
2022-10-16T18:26:10.525Z,18.59
2022-10-16T18:28:37.248Z,18.54
2022-10-16T18:31:06.888Z,18.52
2022-10-16T18:33:34.370Z,18.50
2022-10-16T18:36:02.900Z,18.41
2022-10-16T18:38:30.552Z,18.31
2022-10-16T18:40:57.771Z,18.26
2022-10-16T18:43:24.891Z,18.19
2022-10-16T18:46:18.831Z,18.14
2022-10-16T18:48:47.217Z,18.15
2022-10-16T18:51:18.161Z,18.14
2022-10-16T18:53:47.093Z,18.10
2022-10-16T18:56:15.231Z,18.13
2022-10-16T18:58:43.300Z,18.11
2022-10-16T19:01:16.708Z,18.10
2022-10-16T19:03:44.155Z,18.08
2022-10-16T19:06:13.731Z,18.04
2022-10-16T19:08:41.169Z,18.04
2022-10-16T19:11:16.060Z,18.00
2022-10-16T19:13:44.273Z,17.94
2022-10-16T19:16:20.230Z,17.90
2022-10-16T19:18:48.570Z,17.97
2022-10-16T19:21:16.029Z,17.88
2022-10-16T19:23:43.131Z,17.88
2022-10-16T19:26:13.038Z,17.82
2022-10-16T19:28:40.359Z,17.87
2022-10-16T19:31:12.774Z,17.84
2022-10-16T19:33:40.530Z,17.83
2022-10-16T19:36:11.490Z,17.84
2022-10-16T19:38:39.291Z,17.86
2022-10-16T19:41:18.844Z,17.83
2022-10-16T19:43:46.677Z,17.81
2022-10-16T19:46:16.185Z,17.83
2022-10-16T19:48:42.951Z,17.77
2022-10-16T19:51:15.578Z,17.72
2022-10-16T19:53:42.593Z,17.69
2022-10-16T19:56:21.910Z,17.70
2022-10-16T19:58:49.303Z,17.70
2022-10-16T20:01:16.679Z,17.68
2022-10-16T20:03:44.173Z,17.64
2022-10-16T20:06:11.225Z,17.60
2022-10-16T20:08:39.340Z,17.54
2022-10-16T20:11:07.821Z,17.51
2022-10-16T20:13:38.429Z,17.49
2022-10-16T20:16:08.473Z,17.48
2022-10-16T20:18:35.218Z,17.45
2022-10-16T20:21:02.345Z,17.43
2022-10-16T20:23:29.143Z,17.39
2022-10-16T20:26:03.909Z,17.36
2022-10-16T20:28:31.171Z,17.32
2022-10-16T20:30:57.879Z,17.29
2022-10-16T20:33:24.869Z,17.23
2022-10-16T20:35:51.778Z,17.16
2022-10-16T20:38:18.891Z,17.18
2022-10-16T20:40:47.832Z,17.20
2022-10-16T20:43:16.799Z,17.15
2022-10-16T20:45:44.219Z,17.18
2022-10-16T20:48:11.411Z,17.17
2022-10-16T20:50:39.756Z,17.11
2022-10-16T20:53:07.073Z,17.10
2022-10-16T20:55:36.063Z,17.06
2022-10-16T20:58:03.463Z,17.06
2022-10-16T21:00:30.259Z,17.05
2022-10-16T21:02:57.461Z,16.98
2022-10-16T21:05:24.101Z,16.92
2022-10-16T21:07:50.812Z,16.86
2022-10-16T21:10:19.182Z,16.82
2022-10-16T21:12:45.920Z,16.69
2022-10-16T21:15:15.389Z,16.63
2022-10-16T21:17:42.668Z,16.55
2022-10-16T21:20:09.523Z,16.51
2022-10-16T21:22:36.290Z,16.46
2022-10-16T21:25:02.982Z,16.44
2022-10-16T21:27:30.811Z,16.44
2022-10-16T21:29:57.432Z,16.36
2022-10-16T21:32:24.163Z,16.41
2022-10-16T21:34:51.246Z,16.32
2022-10-16T21:37:17.867Z,16.32
2022-10-16T21:39:44.937Z,16.29
2022-10-16T21:42:11.566Z,16.27
2022-10-16T21:44:38.970Z,16.28
2022-10-16T21:47:05.674Z,16.29
2022-10-16T21:49:32.351Z,16.30
2022-10-16T21:51:59.154Z,16.36
2022-10-16T21:54:25.938Z,16.39
2022-10-16T21:56:53.133Z,16.45
2022-10-16T21:59:20.157Z,16.44
2022-10-16T22:01:47.098Z,16.43
2022-10-16T22:04:15.681Z,16.39
2022-10-16T22:06:42.487Z,16.36
2022-10-16T22:09:12.691Z,16.32
2022-10-16T22:11:39.378Z,16.30
2022-10-16T22:14:08.443Z,16.32
2022-10-16T22:16:36.345Z,16.34
2022-10-16T22:19:07.137Z,16.28
2022-10-16T22:21:35.755Z,16.20
2022-10-16T22:24:02.511Z,16.21
2022-10-16T22:26:29.261Z,16.21
2022-10-16T22:28:56.334Z,16.16
2022-10-16T22:31:23.948Z,16.14
2022-10-16T22:33:57.310Z,16.15
2022-10-16T22:36:24.603Z,16.18
2022-10-16T22:38:51.756Z,16.15
2022-10-16T22:41:18.451Z,16.13
2022-10-16T22:43:48.265Z,16.07
2022-10-16T22:46:20.576Z,16.01
2022-10-16T22:48:47.295Z,16.05
2022-10-16T22:51:16.860Z,15.99
2022-10-16T22:53:45.404Z,15.96
2022-10-16T22:56:13.029Z,15.92
2022-10-16T22:58:39.762Z,15.86
2022-10-16T23:01:19.548Z,15.85
2022-10-16T23:03:46.805Z,15.82
2022-10-16T23:06:13.721Z,15.81
2022-10-16T23:08:41.096Z,15.78
2022-10-16T23:11:09.762Z,15.73
2022-10-16T23:13:43.563Z,15.72
2022-10-16T23:16:12.348Z,15.68
2022-10-16T23:18:39.351Z,15.73
2022-10-16T23:21:11.217Z,15.71
2022-10-16T23:23:38.499Z,15.73
2022-10-16T23:26:14.460Z,15.67
2022-10-16T23:28:41.719Z,15.65
2022-10-16T23:31:08.990Z,15.60
2022-10-16T23:33:37.141Z,15.55
2022-10-16T23:36:08.899Z,15.55
2022-10-16T23:38:35.826Z,15.51
2022-10-16T23:41:02.703Z,15.48
2022-10-16T23:43:30.017Z,15.48
2022-10-16T23:45:56.967Z,15.50
2022-10-16T23:48:23.808Z,15.54
2022-10-16T23:50:50.541Z,15.63
2022-10-16T23:53:17.703Z,15.69
2022-10-16T23:55:44.397Z,15.70
2022-10-16T23:58:11.246Z,15.72
